sensor_id;sensor_type;location;lat;lon;timestamp;P1;durP1;ratioP1;P2;durP2;ratioP2
49041;SDS011;34859;51.608;11.462;2024-03-08T00:00:47;34.85;;;20.55;;
49041;SDS011;34859;51.608;11.462;2024-03-08T00:03:32;37.97;;;22.25;;
49041;SDS011;34859;51.608;11.462;2024-03-08T00:06:19;32.45;;;22.52;;
49041;SDS011;34859;51.608;11.462;2024-03-08T00:09:04;37.70;;;22.83;;
49041;SDS011;34859;51.608;11.462;2024-03-08T00:11:53;40.20;;;21.70;;
49041;SDS011;34859;51.608;11.462;2024-03-08T00:14:39;35.80;;;21.83;;
49041;SDS011;34859;51.608;11.462;2024-03-08T00:17:24;38.58;;;22.45;;
49041;SDS011;34859;51.608;11.462;2024-03-08T00:20:10;35.28;;;21.80;;
49041;SDS011;34859;51.608;11.462;2024-03-08T00:22:56;34.30;;;21.27;;
49041;SDS011;34859;51.608;11.462;2024-03-08T00:25:43;37.00;;;22.23;;
49041;SDS011;34859;51.608;11.462;2024-03-08T00:28:29;33.97;;;20.90;;
49041;SDS011;34859;51.608;11.462;2024-03-08T00:31:16;36.42;;;21.58;;
49041;SDS011;34859;51.608;11.462;2024-03-08T00:34:02;37.15;;;21.60;;
49041;SDS011;34859;51.608;11.462;2024-03-08T00:36:48;32.42;;;20.45;;
49041;SDS011;34859;51.608;11.462;2024-03-08T00:39:34;34.67;;;22.13;;
49041;SDS011;34859;51.608;11.462;2024-03-08T00:42:20;35.47;;;19.80;;
49041;SDS011;34859;51.608;11.462;2024-03-08T00:45:06;32.30;;;20.58;;
49041;SDS011;34859;51.608;11.462;2024-03-08T00:47:53;31.27;;;20.27;;
49041;SDS011;34859;51.608;11.462;2024-03-08T00:50:39;40.35;;;21.83;;
49041;SDS011;34859;51.608;11.462;2024-03-08T00:53:25;34.15;;;21.48;;
49041;SDS011;34859;51.608;11.462;2024-03-08T00:56:11;36.55;;;22.00;;
49041;SDS011;34859;51.608;11.462;2024-03-08T00:59:17;39.90;;;22.08;;
49041;SDS011;34859;51.608;11.462;2024-03-08T01:03:03;35.42;;;22.05;;
49041;SDS011;34859;51.608;11.462;2024-03-08T01:06:49;48.05;;;24.65;;
49041;SDS011;34859;51.608;11.462;2024-03-08T01:09:59;35.17;;;20.98;;
49041;SDS011;34859;51.608;11.462;2024-03-08T01:12:46;38.67;;;22.00;;
49041;SDS011;34859;51.608;11.462;2024-03-08T01:15:32;32.65;;;20.60;;
49041;SDS011;34859;51.608;11.462;2024-03-08T01:18:18;35.90;;;21.70;;
49041;SDS011;34859;51.608;11.462;2024-03-08T01:21:05;36.90;;;21.70;;
49041;SDS011;34859;51.608;11.462;2024-03-08T01:23:51;37.65;;;21.40;;
49041;SDS011;34859;51.608;11.462;2024-03-08T01:26:37;34.15;;;20.52;;
49041;SDS011;34859;51.608;11.462;2024-03-08T01:29:24;37.45;;;22.25;;
49041;SDS011;34859;51.608;11.462;2024-03-08T01:32:10;39.33;;;23.35;;
49041;SDS011;34859;51.608;11.462;2024-03-08T01:34:55;42.70;;;23.70;;
49041;SDS011;34859;51.608;11.462;2024-03-08T01:37:41;45.75;;;24.20;;
49041;SDS011;34859;51.608;11.462;2024-03-08T01:40:27;41.90;;;23.33;;
49041;SDS011;34859;51.608;11.462;2024-03-08T01:46:06;42.20;;;22.38;;
49041;SDS011;34859;51.608;11.462;2024-03-08T01:48:54;46.15;;;24.08;;
49041;SDS011;34859;51.608;11.462;2024-03-08T01:51:41;39.83;;;24.20;;
49041;SDS011;34859;51.608;11.462;2024-03-08T01:54:27;46.10;;;25.63;;
49041;SDS011;34859;51.608;11.462;2024-03-08T01:57:13;39.15;;;24.30;;
49041;SDS011;34859;51.608;11.462;2024-03-08T02:00:01;38.63;;;22.65;;
49041;SDS011;34859;51.608;11.462;2024-03-08T02:02:49;36.25;;;21.42;;
49041;SDS011;34859;51.608;11.462;2024-03-08T02:05:40;37.47;;;22.15;;
49041;SDS011;34859;51.608;11.462;2024-03-08T02:08:26;42.75;;;21.17;;
49041;SDS011;34859;51.608;11.462;2024-03-08T02:11:12;42.92;;;22.83;;
49041;SDS011;34859;51.608;11.462;2024-03-08T02:13:59;38.35;;;22.10;;
49041;SDS011;34859;51.608;11.462;2024-03-08T02:16:45;36.55;;;22.23;;
49041;SDS011;34859;51.608;11.462;2024-03-08T02:19:31;41.75;;;23.50;;
49041;SDS011;34859;51.608;11.462;2024-03-08T02:22:18;38.78;;;22.63;;
49041;SDS011;34859;51.608;11.462;2024-03-08T02:25:05;37.17;;;22.83;;
49041;SDS011;34859;51.608;11.462;2024-03-08T02:27:52;38.75;;;23.15;;
49041;SDS011;34859;51.608;11.462;2024-03-08T02:31:02;34.67;;;21.48;;
49041;SDS011;34859;51.608;11.462;2024-03-08T02:33:53;35.72;;;21.73;;
49041;SDS011;34859;51.608;11.462;2024-03-08T02:36:39;38.95;;;21.98;;
49041;SDS011;34859;51.608;11.462;2024-03-08T02:39:25;40.40;;;22.80;;
49041;SDS011;34859;51.608;11.462;2024-03-08T02:42:11;35.65;;;21.77;;
49041;SDS011;34859;51.608;11.462;2024-03-08T02:44:58;42.72;;;25.00;;
49041;SDS011;34859;51.608;11.462;2024-03-08T02:47:44;46.85;;;23.27;;
49041;SDS011;34859;51.608;11.462;2024-03-08T02:50:30;38.55;;;24.35;;
49041;SDS011;34859;51.608;11.462;2024-03-08T02:53:16;46.67;;;24.13;;
49041;SDS011;34859;51.608;11.462;2024-03-08T02:56:04;39.20;;;23.23;;
49041;SDS011;34859;51.608;11.462;2024-03-08T02:58:53;35.70;;;21.60;;
49041;SDS011;34859;51.608;11.462;2024-03-08T03:01:39;36.83;;;22.40;;
49041;SDS011;34859;51.608;11.462;2024-03-08T03:04:26;35.58;;;20.67;;
49041;SDS011;34859;51.608;11.462;2024-03-08T03:07:13;36.97;;;21.63;;
49041;SDS011;34859;51.608;11.462;2024-03-08T03:09:59;39.17;;;21.23;;
49041;SDS011;34859;51.608;11.462;2024-03-08T03:12:48;34.05;;;21.42;;
49041;SDS011;34859;51.608;11.462;2024-03-08T03:15:35;40.58;;;21.67;;
49041;SDS011;34859;51.608;11.462;2024-03-08T03:18:21;33.42;;;20.95;;
49041;SDS011;34859;51.608;11.462;2024-03-08T03:21:09;38.05;;;21.35;;
49041;SDS011;34859;51.608;11.462;2024-03-08T03:23:55;38.45;;;21.52;;
49041;SDS011;34859;51.608;11.462;2024-03-08T03:26:41;40.70;;;23.08;;
49041;SDS011;34859;51.608;11.462;2024-03-08T03:29:28;39.38;;;21.75;;
49041;SDS011;34859;51.608;11.462;2024-03-08T03:32:15;41.28;;;22.85;;
49041;SDS011;34859;51.608;11.462;2024-03-08T03:35:03;39.38;;;21.42;;
49041;SDS011;34859;51.608;11.462;2024-03-08T03:37:50;39.08;;;21.67;;
49041;SDS011;34859;51.608;11.462;2024-03-08T03:40:46;38.63;;;21.60;;
49041;SDS011;34859;51.608;11.462;2024-03-08T03:43:34;41.50;;;21.10;;
49041;SDS011;34859;51.608;11.462;2024-03-08T03:46:19;38.90;;;22.10;;
49041;SDS011;34859;51.608;11.462;2024-03-08T03:49:06;38.17;;;21.75;;
49041;SDS011;34859;51.608;11.462;2024-03-08T03:51:52;32.15;;;19.92;;
49041;SDS011;34859;51.608;11.462;2024-03-08T03:54:38;37.25;;;23.58;;
49041;SDS011;34859;51.608;11.462;2024-03-08T03:57:24;40.28;;;23.58;;
49041;SDS011;34859;51.608;11.462;2024-03-08T04:00:10;40.88;;;22.55;;
49041;SDS011;34859;51.608;11.462;2024-03-08T04:02:57;41.78;;;23.00;;
49041;SDS011;34859;51.608;11.462;2024-03-08T04:05:46;36.80;;;21.45;;
49041;SDS011;34859;51.608;11.462;2024-03-08T04:08:31;38.15;;;23.10;;
49041;SDS011;34859;51.608;11.462;2024-03-08T04:11:19;33.47;;;21.90;;
49041;SDS011;34859;51.608;11.462;2024-03-08T04:14:06;40.97;;;22.48;;
49041;SDS011;34859;51.608;11.462;2024-03-08T04:16:52;37.63;;;21.65;;
49041;SDS011;34859;51.608;11.462;2024-03-08T04:19:38;35.47;;;21.80;;
49041;SDS011;34859;51.608;11.462;2024-03-08T04:22:25;36.85;;;21.63;;
49041;SDS011;34859;51.608;11.462;2024-03-08T04:25:11;50.80;;;25.38;;
49041;SDS011;34859;51.608;11.462;2024-03-08T04:27:56;33.97;;;19.90;;
49041;SDS011;34859;51.608;11.462;2024-03-08T04:30:42;36.88;;;20.65;;
49041;SDS011;34859;51.608;11.462;2024-03-08T04:33:28;38.60;;;21.42;;
49041;SDS011;34859;51.608;11.462;2024-03-08T04:36:14;33.90;;;21.40;;
49041;SDS011;34859;51.608;11.462;2024-03-08T04:39:00;34.20;;;20.38;;
49041;SDS011;34859;51.608;11.462;2024-03-08T04:41:46;37.25;;;21.80;;
49041;SDS011;34859;51.608;11.462;2024-03-08T04:44:32;39.42;;;21.25;;
49041;SDS011;34859;51.608;11.462;2024-03-08T04:47:19;36.17;;;22.13;;
49041;SDS011;34859;51.608;11.462;2024-03-08T04:50:05;35.33;;;21.67;;
49041;SDS011;34859;51.608;11.462;2024-03-08T04:52:51;36.63;;;23.08;;
49041;SDS011;34859;51.608;11.462;2024-03-08T04:55:37;43.88;;;23.02;;
49041;SDS011;34859;51.608;11.462;2024-03-08T04:58:23;43.88;;;23.75;;
49041;SDS011;34859;51.608;11.462;2024-03-08T05:01:09;41.08;;;24.15;;
49041;SDS011;34859;51.608;11.462;2024-03-08T05:03:56;42.15;;;23.25;;
49041;SDS011;34859;51.608;11.462;2024-03-08T05:06:42;36.63;;;22.63;;
49041;SDS011;34859;51.608;11.462;2024-03-08T05:09:28;42.33;;;21.85;;
49041;SDS011;34859;51.608;11.462;2024-03-08T05:12:14;47.70;;;26.33;;
49041;SDS011;34859;51.608;11.462;2024-03-08T05:15:00;49.10;;;27.10;;
49041;SDS011;34859;51.608;11.462;2024-03-08T05:17:46;47.83;;;27.08;;
49041;SDS011;34859;51.608;11.462;2024-03-08T05:20:32;48.17;;;26.45;;
49041;SDS011;34859;51.608;11.462;2024-03-08T05:23:18;50.35;;;26.90;;
49041;SDS011;34859;51.608;11.462;2024-03-08T05:26:04;45.00;;;25.98;;
49041;SDS011;34859;51.608;11.462;2024-03-08T05:28:50;41.80;;;24.10;;
49041;SDS011;34859;51.608;11.462;2024-03-08T05:34:32;42.63;;;25.42;;
49041;SDS011;34859;51.608;11.462;2024-03-08T05:37:18;47.88;;;25.15;;
49041;SDS011;34859;51.608;11.462;2024-03-08T05:40:06;43.88;;;25.83;;
49041;SDS011;34859;51.608;11.462;2024-03-08T05:42:55;42.92;;;24.45;;
49041;SDS011;34859;51.608;11.462;2024-03-08T05:45:41;43.50;;;24.73;;
49041;SDS011;34859;51.608;11.462;2024-03-08T05:48:27;47.40;;;25.17;;
49041;SDS011;34859;51.608;11.462;2024-03-08T05:51:13;43.47;;;24.45;;
49041;SDS011;34859;51.608;11.462;2024-03-08T05:53:59;48.33;;;25.27;;
49041;SDS011;34859;51.608;11.462;2024-03-08T05:56:48;49.17;;;27.45;;
49041;SDS011;34859;51.608;11.462;2024-03-08T05:59:38;49.65;;;27.10;;
49041;SDS011;34859;51.608;11.462;2024-03-08T06:02:24;52.30;;;25.42;;
49041;SDS011;34859;51.608;11.462;2024-03-08T06:05:10;43.38;;;25.17;;
49041;SDS011;34859;51.608;11.462;2024-03-08T06:07:56;46.63;;;25.38;;
49041;SDS011;34859;51.608;11.462;2024-03-08T06:10:42;45.47;;;25.63;;
49041;SDS011;34859;51.608;11.462;2024-03-08T06:13:28;45.35;;;25.92;;
49041;SDS011;34859;51.608;11.462;2024-03-08T06:16:16;51.70;;;27.95;;
49041;SDS011;34859;51.608;11.462;2024-03-08T06:19:02;47.08;;;26.65;;
49041;SDS011;34859;51.608;11.462;2024-03-08T06:21:48;56.05;;;28.48;;
49041;SDS011;34859;51.608;11.462;2024-03-08T06:24:34;52.70;;;27.45;;
49041;SDS011;34859;51.608;11.462;2024-03-08T06:27:23;53.70;;;26.90;;
49041;SDS011;34859;51.608;11.462;2024-03-08T06:30:10;43.33;;;25.33;;
49041;SDS011;34859;51.608;11.462;2024-03-08T06:32:57;44.58;;;26.27;;
49041;SDS011;34859;51.608;11.462;2024-03-08T06:35:44;44.97;;;26.92;;
49041;SDS011;34859;51.608;11.462;2024-03-08T06:38:31;45.88;;;26.15;;
49041;SDS011;34859;51.608;11.462;2024-03-08T06:41:18;52.50;;;26.08;;
49041;SDS011;34859;51.608;11.462;2024-03-08T06:44:05;49.78;;;28.38;;
49041;SDS011;34859;51.608;11.462;2024-03-08T06:46:53;47.10;;;26.48;;
49041;SDS011;34859;51.608;11.462;2024-03-08T06:49:40;47.20;;;26.77;;
49041;SDS011;34859;51.608;11.462;2024-03-08T06:52:28;43.72;;;26.48;;
49041;SDS011;34859;51.608;11.462;2024-03-08T06:55:15;55.08;;;29.33;;
49041;SDS011;34859;51.608;11.462;2024-03-08T06:58:02;45.35;;;26.70;;
49041;SDS011;34859;51.608;11.462;2024-03-08T07:00:49;55.17;;;27.80;;
49041;SDS011;34859;51.608;11.462;2024-03-08T07:03:37;48.90;;;27.45;;
49041;SDS011;34859;51.608;11.462;2024-03-08T07:06:29;55.00;;;29.52;;
49041;SDS011;34859;51.608;11.462;2024-03-08T07:09:18;49.78;;;30.33;;
49041;SDS011;34859;51.608;11.462;2024-03-08T07:12:05;48.97;;;25.45;;
49041;SDS011;34859;51.608;11.462;2024-03-08T07:14:52;54.95;;;28.33;;
49041;SDS011;34859;51.608;11.462;2024-03-08T07:17:39;54.20;;;28.58;;
49041;SDS011;34859;51.608;11.462;2024-03-08T07:20:26;56.42;;;29.52;;
49041;SDS011;34859;51.608;11.462;2024-03-08T07:23:14;54.30;;;27.98;;
49041;SDS011;34859;51.608;11.462;2024-03-08T07:26:20;61.20;;;29.90;;
49041;SDS011;34859;51.608;11.462;2024-03-08T07:29:08;58.58;;;30.67;;
49041;SDS011;34859;51.608;11.462;2024-03-08T07:31:55;59.72;;;34.45;;
49041;SDS011;34859;51.608;11.462;2024-03-08T07:34:57;64.05;;;31.38;;
49041;SDS011;34859;51.608;11.462;2024-03-08T07:37:44;56.88;;;29.50;;
49041;SDS011;34859;51.608;11.462;2024-03-08T07:40:31;53.20;;;30.65;;
49041;SDS011;34859;51.608;11.462;2024-03-08T07:43:21;58.83;;;32.50;;
49041;SDS011;34859;51.608;11.462;2024-03-08T07:46:09;63.45;;;33.67;;
49041;SDS011;34859;51.608;11.462;2024-03-08T07:48:56;60.67;;;32.35;;
49041;SDS011;34859;51.608;11.462;2024-03-08T07:51:43;57.13;;;31.08;;
49041;SDS011;34859;51.608;11.462;2024-03-08T07:54:30;54.33;;;31.45;;
49041;SDS011;34859;51.608;11.462;2024-03-08T07:57:16;53.63;;;32.50;;
49041;SDS011;34859;51.608;11.462;2024-03-08T08:00:04;63.85;;;32.90;;
49041;SDS011;34859;51.608;11.462;2024-03-08T08:02:54;61.47;;;34.90;;
49041;SDS011;34859;51.608;11.462;2024-03-08T08:05:41;60.63;;;34.28;;
49041;SDS011;34859;51.608;11.462;2024-03-08T08:08:28;67.15;;;36.78;;
49041;SDS011;34859;51.608;11.462;2024-03-08T08:11:15;70.90;;;37.13;;
49041;SDS011;34859;51.608;11.462;2024-03-08T08:14:02;68.55;;;37.13;;
49041;SDS011;34859;51.608;11.462;2024-03-08T08:16:49;68.72;;;38.60;;
49041;SDS011;34859;51.608;11.462;2024-03-08T08:19:38;68.65;;;37.72;;
49041;SDS011;34859;51.608;11.462;2024-03-08T08:22:27;75.38;;;40.03;;
49041;SDS011;34859;51.608;11.462;2024-03-08T08:25:14;69.47;;;38.17;;
49041;SDS011;34859;51.608;11.462;2024-03-08T08:28:00;74.13;;;39.10;;
49041;SDS011;34859;51.608;11.462;2024-03-08T08:30:49;69.72;;;38.65;;
49041;SDS011;34859;51.608;11.462;2024-03-08T08:33:36;74.57;;;37.58;;
49041;SDS011;34859;51.608;11.462;2024-03-08T08:36:26;69.78;;;37.22;;
49041;SDS011;34859;51.608;11.462;2024-03-08T08:39:15;68.47;;;39.22;;
49041;SDS011;34859;51.608;11.462;2024-03-08T08:42:02;75.63;;;39.95;;
49041;SDS011;34859;51.608;11.462;2024-03-08T08:44:50;67.55;;;39.42;;
49041;SDS011;34859;51.608;11.462;2024-03-08T08:48:55;73.22;;;37.88;;
49041;SDS011;34859;51.608;11.462;2024-03-08T08:53:04;69.28;;;38.42;;
49041;SDS011;34859;51.608;11.462;2024-03-08T09:04:37;68.25;;;36.85;;
49041;SDS011;34859;51.608;11.462;2024-03-08T09:23:45;62.58;;;38.67;;
49041;SDS011;34859;51.608;11.462;2024-03-08T09:31:19;63.30;;;35.25;;
49041;SDS011;34859;51.608;11.462;2024-03-08T09:38:18;58.28;;;36.65;;
49041;SDS011;34859;51.608;11.462;2024-03-08T09:41:06;62.22;;;37.80;;
49041;SDS011;34859;51.608;11.462;2024-03-08T09:47:43;62.15;;;35.40;;
49041;SDS011;34859;51.608;11.462;2024-03-08T09:50:30;56.90;;;36.08;;
49041;SDS011;34859;51.608;11.462;2024-03-08T09:53:18;67.43;;;36.50;;
49041;SDS011;34859;51.608;11.462;2024-03-08T09:56:08;60.10;;;36.38;;
49041;SDS011;34859;51.608;11.462;2024-03-08T09:58:54;56.38;;;35.08;;
49041;SDS011;34859;51.608;11.462;2024-03-08T10:01:59;56.13;;;35.08;;
49041;SDS011;34859;51.608;11.462;2024-03-08T10:04:47;59.67;;;34.95;;
49041;SDS011;34859;51.608;11.462;2024-03-08T10:07:57;57.03;;;33.63;;
49041;SDS011;34859;51.608;11.462;2024-03-08T10:15:00;57.53;;;33.88;;
49041;SDS011;34859;51.608;11.462;2024-03-08T10:17:46;53.90;;;33.53;;
49041;SDS011;34859;51.608;11.462;2024-03-08T10:20:34;53.60;;;33.97;;
49041;SDS011;34859;51.608;11.462;2024-03-08T18:25:36;29.95;;;16.50;;
49041;SDS011;34859;51.608;11.462;2024-03-08T18:28:23;19.15;;;14.48;;
49041;SDS011;34859;51.608;11.462;2024-03-08T18:31:12;33.42;;;16.88;;
49041;SDS011;34859;51.608;11.462;2024-03-08T18:33:59;23.63;;;15.32;;
49041;SDS011;34859;51.608;11.462;2024-03-08T18:36:45;21.85;;;16.15;;
49041;SDS011;34859;51.608;11.462;2024-03-08T18:39:32;27.23;;;16.08;;
49041;SDS011;34859;51.608;11.462;2024-03-08T18:42:19;24.60;;;16.58;;
49041;SDS011;34859;51.608;11.462;2024-03-08T18:45:10;26.98;;;16.45;;
49041;SDS011;34859;51.608;11.462;2024-03-08T18:48:02;26.52;;;15.57;;
49041;SDS011;34859;51.608;11.462;2024-03-08T18:50:50;25.77;;;16.55;;
49041;SDS011;34859;51.608;11.462;2024-03-08T18:53:37;24.80;;;16.42;;
49041;SDS011;34859;51.608;11.462;2024-03-08T18:56:27;31.05;;;17.35;;
49041;SDS011;34859;51.608;11.462;2024-03-08T18:59:13;27.27;;;17.17;;
49041;SDS011;34859;51.608;11.462;2024-03-08T19:02:00;29.00;;;16.75;;
49041;SDS011;34859;51.608;11.462;2024-03-08T19:04:48;25.38;;;16.58;;
49041;SDS011;34859;51.608;11.462;2024-03-08T19:07:35;26.02;;;16.92;;
49041;SDS011;34859;51.608;11.462;2024-03-08T19:10:24;25.55;;;17.20;;
49041;SDS011;34859;51.608;11.462;2024-03-08T19:13:33;24.77;;;15.75;;
49041;SDS011;34859;51.608;11.462;2024-03-08T19:17:42;27.60;;;16.85;;
49041;SDS011;34859;51.608;11.462;2024-03-08T19:20:54;30.77;;;18.52;;
49041;SDS011;34859;51.608;11.462;2024-03-08T19:24:50;31.25;;;17.58;;
49041;SDS011;34859;51.608;11.462;2024-03-08T19:28:12;29.48;;;17.55;;
49041;SDS011;34859;51.608;11.462;2024-03-08T19:32:12;35.85;;;18.27;;
49041;SDS011;34859;51.608;11.462;2024-03-08T19:36:10;31.20;;;18.17;;
49041;SDS011;34859;51.608;11.462;2024-03-08T19:39:05;30.95;;;18.90;;
49041;SDS011;34859;51.608;11.462;2024-03-08T19:42:47;32.65;;;20.75;;
49041;SDS011;34859;51.608;11.462;2024-03-08T19:46:11;34.07;;;18.80;;
49041;SDS011;34859;51.608;11.462;2024-03-08T19:55:42;35.83;;;19.95;;
49041;SDS011;34859;51.608;11.462;2024-03-08T19:58:37;30.85;;;19.73;;
49041;SDS011;34859;51.608;11.462;2024-03-08T20:12:57;40.97;;;24.02;;
49041;SDS011;34859;51.608;11.462;2024-03-08T20:39:12;44.33;;;27.33;;
49041;SDS011;34859;51.608;11.462;2024-03-08T20:46:55;51.58;;;28.65;;
49041;SDS011;34859;51.608;11.462;2024-03-08T20:50:39;48.22;;;28.88;;
49041;SDS011;34859;51.608;11.462;2024-03-08T21:09:31;59.28;;;32.47;;
49041;SDS011;34859;51.608;11.462;2024-03-08T21:13:25;60.40;;;33.47;;
49041;SDS011;34859;51.608;11.462;2024-03-08T21:17:16;58.20;;;33.13;;
49041;SDS011;34859;51.608;11.462;2024-03-08T21:25:13;60.15;;;36.42;;
49041;SDS011;34859;51.608;11.462;2024-03-08T21:37:02;62.35;;;35.72;;
49041;SDS011;34859;51.608;11.462;2024-03-08T21:40:48;66.40;;;37.78;;
49041;SDS011;34859;51.608;11.462;2024-03-08T21:55:46;70.70;;;39.42;;
49041;SDS011;34859;51.608;11.462;2024-03-08T22:07:11;72.85;;;40.25;;
49041;SDS011;34859;51.608;11.462;2024-03-08T22:28:55;79.15;;;41.97;;
49041;SDS011;34859;51.608;11.462;2024-03-08T22:39:44;78.75;;;43.70;;
49041;SDS011;34859;51.608;11.462;2024-03-08T23:02:16;76.65;;;42.83;;
49041;SDS011;34859;51.608;11.462;2024-03-08T23:21:43;73.18;;;42.95;;
49041;SDS011;34859;51.608;11.462;2024-03-08T23:25:18;76.65;;;43.10;;
49041;SDS011;34859;51.608;11.462;2024-03-08T23:36:40;70.10;;;38.67;;
49041;SDS011;34859;51.608;11.462;2024-03-08T23:40:39;66.53;;;38.60;;
49041;SDS011;34859;51.608;11.462;2024-03-08T23:48:45;73.07;;;41.25;;
49041;SDS011;34859;51.608;11.462;2024-03-08T23:59:52;73.40;;;41.38;;
